Birmingham International Airport (BHM)

 

Airport Diagram
Current Weather/Forecast (MVFR Conditions)
METAR KBHM 161421Z 27007KT 10SM BKN010 OVC013 09/08 A3021 RMK AO2 CIG 008V012 T00940078
TAF KBHM 161340Z 1614/1712 27007KT 6SM -DZ BKN010 OVC015 FM161700 31007KT P6SM OVC015 FM162300 31006KT P6SM BKN035 FM170900 33001KT P6SM OVC015

All Charts
General (4)
Chart Name Download
AIRPORT DIAGRAM
ALTERNATE MINIMUMS
LAHSO
TAKEOFF MINIMUMS

Departures (2)
Chart Name Download
BIRMINGHAM SEVEN
BIRMINGHAM SEVEN, CONT.1

Approaches (11)
Chart Name Download
ILS OR LOC RWY 06
ILS OR LOC RWY 24
ILS RWY 06 (CAT II)
ILS RWY 24 (SA CAT II)
LOC RWY 18
RNAV (GPS) RWY 18
RNAV (GPS) RWY 36
RNAV (GPS) Y RWY 06
RNAV (GPS) Y RWY 24
RNAV (RNP) Z RWY 06
RNAV (RNP) Z RWY 24


Inbound Traffic (Arrivals)

No inbound traffic.


Outbound Traffic (Departures)
Callsign Aircraft Rules Destination Route
VFA122 F18H/P IFR KGAD VUZ V417 HOKES